createdAt,value
2022-08-30T00:00:35.323Z,74.76
2022-08-30T00:03:04.561Z,74.90
2022-08-30T00:05:37.431Z,75.25
2022-08-30T00:08:08.897Z,75.82
2022-08-30T00:10:39.018Z,76.20
2022-08-30T00:13:08.484Z,75.82
2022-08-30T00:15:37.435Z,75.58
2022-08-30T00:18:06.633Z,75.33
2022-08-30T00:20:37.075Z,75.70
2022-08-30T00:23:06.634Z,75.82
2022-08-30T00:25:35.709Z,75.31
2022-08-30T00:28:04.813Z,75.77
2022-08-30T00:30:33.655Z,75.89
2022-08-30T00:33:02.562Z,76.02
2022-08-30T00:35:31.456Z,76.62
2022-08-30T00:38:00.235Z,76.31
2022-08-30T00:40:30.041Z,77.06
2022-08-30T00:43:05.628Z,76.76
2022-08-30T00:45:37.233Z,76.76
2022-08-30T00:48:08.757Z,76.27
2022-08-30T00:50:51.124Z,77.17
2022-08-30T00:53:28.417Z,76.74
2022-08-30T00:55:58.310Z,76.41
2022-08-30T00:58:32.392Z,76.76
2022-08-30T01:01:02.614Z,76.95
2022-08-30T01:03:31.755Z,77.16
2022-08-30T01:06:04.623Z,76.41
2022-08-30T01:08:33.205Z,76.96
2022-08-30T01:11:04.579Z,76.64
2022-08-30T01:13:35.232Z,76.42
2022-08-30T01:16:04.755Z,76.92
2022-08-30T01:18:33.331Z,76.13
2022-08-30T01:21:39.779Z,77.17
2022-08-30T01:24:08.415Z,76.25
2022-08-30T01:26:37.838Z,76.02
2022-08-30T01:29:17.018Z,76.65
2022-08-30T01:31:45.648Z,76.55
2022-08-30T01:34:14.223Z,77.10
2022-08-30T01:36:45.710Z,76.86
2022-08-30T01:39:17.229Z,76.72
2022-08-30T01:41:46.567Z,76.39
2022-08-30T01:44:15.735Z,76.12
2022-08-30T01:46:48.294Z,76.02
2022-08-30T01:49:23.121Z,76.37
2022-08-30T01:52:01.169Z,74.82
2022-08-30T01:54:37.740Z,71.98
2022-08-30T01:57:11.757Z,68.45
2022-08-30T01:59:43.106Z,65.21
2022-08-30T02:02:11.936Z,63.82
2022-08-30T02:04:40.396Z,61.01
2022-08-30T02:07:09.304Z,59.86
2022-08-30T02:09:38.378Z,57.66
2022-08-30T02:12:08.793Z,56.72
2022-08-30T02:14:38.474Z,56.23
2022-08-30T02:17:09.762Z,55.77
2022-08-30T02:19:41.725Z,54.86
2022-08-30T02:22:10.678Z,53.61
2022-08-30T02:24:39.487Z,52.71
2022-08-30T02:27:08.475Z,52.95
2022-08-30T02:29:37.126Z,52.79
2022-08-30T02:32:05.924Z,50.86
2022-08-30T02:34:34.861Z,51.82
2022-08-30T02:37:03.643Z,51.21
2022-08-30T02:39:32.124Z,50.82
2022-08-30T02:42:00.804Z,51.16
2022-08-30T02:44:32.051Z,50.67
2022-08-30T02:47:00.620Z,51.78
2022-08-30T02:49:36.208Z,50.39
2022-08-30T02:52:06.777Z,49.88
2022-08-30T02:54:36.158Z,50.50
2022-08-30T02:57:07.041Z,50.46
2022-08-30T02:59:39.158Z,48.98
2022-08-30T03:02:09.183Z,48.75
2022-08-30T03:04:39.833Z,51.56
2022-08-30T03:07:09.343Z,51.05
2022-08-30T03:09:38.053Z,48.75
2022-08-30T03:12:07.706Z,48.48
2022-08-30T03:14:38.515Z,48.25
2022-08-30T03:17:12.771Z,47.85
2022-08-30T03:19:45.619Z,47.57
2022-08-30T03:22:14.369Z,49.08
2022-08-30T03:24:43.341Z,48.99
2022-08-30T03:27:12.171Z,49.58
2022-08-30T03:29:40.793Z,48.42
2022-08-30T03:32:09.975Z,48.59
2022-08-30T03:34:38.730Z,47.09
2022-08-30T03:37:07.163Z,46.27
2022-08-30T03:39:35.867Z,47.46
2022-08-30T03:42:04.685Z,47.24
2022-08-30T03:44:35.023Z,46.36
2022-08-30T03:47:09.342Z,47.42
2022-08-30T03:49:37.966Z,48.85
2022-08-30T03:52:07.190Z,48.12
2022-08-30T03:54:35.571Z,46.40
2022-08-30T03:57:07.088Z,46.68
2022-08-30T03:59:36.305Z,47.12
2022-08-30T04:02:05.970Z,48.07
2022-08-30T04:04:34.465Z,48.77
2022-08-30T04:07:02.999Z,46.73
2022-08-30T04:09:32.008Z,46.74
2022-08-30T04:12:00.986Z,44.69
2022-08-30T04:14:29.585Z,45.61
2022-08-30T04:16:58.713Z,44.77
2022-08-30T04:19:27.294Z,46.28
2022-08-30T04:21:55.644Z,44.76
2022-08-30T04:24:24.571Z,44.66
2022-08-30T04:26:53.175Z,45.82
2022-08-30T04:29:21.738Z,45.16
2022-08-30T04:31:50.493Z,44.86
2022-08-30T04:34:19.328Z,45.57
2022-08-30T04:36:50.034Z,44.37
2022-08-30T04:39:20.381Z,45.24
2022-08-30T04:41:49.214Z,44.11
2022-08-30T04:44:19.328Z,43.89
2022-08-30T04:46:49.139Z,45.00
2022-08-30T04:49:17.856Z,44.59
2022-08-30T04:51:46.540Z,44.20
2022-08-30T04:54:15.119Z,45.11
2022-08-30T04:56:44.512Z,43.94
2022-08-30T04:59:13.861Z,44.55
2022-08-30T05:01:45.508Z,44.87
2022-08-30T05:04:15.790Z,46.07
2022-08-30T05:06:44.665Z,45.59
2022-08-30T05:09:13.825Z,46.18
2022-08-30T05:11:44.097Z,46.25
2022-08-30T05:14:12.918Z,46.11
2022-08-30T05:16:42.488Z,45.46
2022-08-30T05:19:11.080Z,44.73
2022-08-30T05:21:41.462Z,44.48
2022-08-30T05:24:10.509Z,44.74
2022-08-30T05:26:39.818Z,45.18
2022-08-30T05:29:08.685Z,44.26
2022-08-30T05:31:38.075Z,44.52
2022-08-30T05:34:07.117Z,44.31
2022-08-30T05:36:37.460Z,44.15
2022-08-30T05:39:08.326Z,44.93
2022-08-30T05:41:38.780Z,43.46
2022-08-30T05:44:09.948Z,45.14
2022-08-30T05:46:40.037Z,44.16
2022-08-30T05:49:09.324Z,43.39
2022-08-30T05:51:43.271Z,43.54
2022-08-30T05:54:13.321Z,43.65
2022-08-30T05:56:44.576Z,43.65
2022-08-30T05:59:14.316Z,43.49
2022-08-30T06:01:46.122Z,42.70
2022-08-30T06:04:15.821Z,44.81
2022-08-30T06:06:45.148Z,43.94
2022-08-30T06:09:14.734Z,43.33
2022-08-30T06:11:44.258Z,43.26
2022-08-30T06:14:13.531Z,42.04
2022-08-30T06:16:46.353Z,41.78
2022-08-30T06:19:16.430Z,41.51
2022-08-30T06:21:48.850Z,41.78
2022-08-30T06:24:17.921Z,42.68
2022-08-30T06:26:48.737Z,42.70
2022-08-30T06:29:20.197Z,41.15
2022-08-30T06:31:49.138Z,40.86
2022-08-30T06:34:18.234Z,41.38
2022-08-30T06:36:46.946Z,40.96
2022-08-30T06:39:15.596Z,41.58
2022-08-30T06:41:44.338Z,40.23
2022-08-30T06:44:25.108Z,41.12
2022-08-30T06:46:53.919Z,41.47
2022-08-30T06:49:22.666Z,39.43
2022-08-30T06:51:54.726Z,39.55
2022-08-30T06:54:23.598Z,39.82
2022-08-30T06:56:59.288Z,40.88
2022-08-30T06:59:28.387Z,40.47
2022-08-30T07:01:57.955Z,39.65
2022-08-30T07:04:27.424Z,39.23
2022-08-30T07:06:56.026Z,39.48
2022-08-30T07:09:25.137Z,39.24
2022-08-30T07:11:54.522Z,38.97
2022-08-30T07:14:23.378Z,40.73
2022-08-30T07:16:52.322Z,39.64
2022-08-30T07:19:21.519Z,40.38
2022-08-30T07:21:50.972Z,41.75
2022-08-30T07:24:22.255Z,41.44
2022-08-30T07:26:52.507Z,41.79
2022-08-30T07:29:22.220Z,41.62
2022-08-30T07:31:50.714Z,43.18
2022-08-30T07:34:21.466Z,42.61
2022-08-30T07:36:51.995Z,42.60
2022-08-30T07:39:21.284Z,42.44
2022-08-30T07:41:50.517Z,42.21
2022-08-30T07:44:19.089Z,42.32
2022-08-30T07:46:51.672Z,41.67
2022-08-30T07:49:20.760Z,42.00
2022-08-30T07:51:49.773Z,43.54
2022-08-30T07:54:18.427Z,42.85
2022-08-30T07:56:47.018Z,42.98
2022-08-30T07:59:16.006Z,42.04
2022-08-30T08:01:44.704Z,42.47
2022-08-30T08:04:13.190Z,41.72
2022-08-30T08:06:41.993Z,44.04
2022-08-30T08:09:10.492Z,43.45
2022-08-30T08:11:41.411Z,43.59
2022-08-30T08:14:10.514Z,43.10
2022-08-30T08:16:39.595Z,42.70
2022-08-30T08:19:09.800Z,42.20
2022-08-30T08:21:41.166Z,42.72
2022-08-30T08:24:09.825Z,44.13
2022-08-30T08:26:41.050Z,43.44
2022-08-30T08:29:14.176Z,43.58
2022-08-30T08:31:43.530Z,44.24
2022-08-30T08:34:12.914Z,43.71
2022-08-30T08:36:42.169Z,44.84
2022-08-30T08:39:10.690Z,43.72
2022-08-30T08:41:49.993Z,43.59
2022-08-30T08:44:40.158Z,44.41
2022-08-30T08:47:25.820Z,45.10
2022-08-30T08:49:59.306Z,44.69
2022-08-30T08:53:13.398Z,42.90
2022-08-30T08:55:51.647Z,43.40
2022-08-30T08:58:44.838Z,42.16
2022-08-30T09:01:16.425Z,41.70
2022-08-30T09:03:46.818Z,40.99
2022-08-30T09:06:45.274Z,40.66
2022-08-30T09:09:14.958Z,39.69
2022-08-30T09:11:44.588Z,39.75
2022-08-30T09:14:36.420Z,38.91
2022-08-30T09:17:15.918Z,38.07
2022-08-30T09:19:54.896Z,39.34
2022-08-30T09:22:46.668Z,38.79
2022-08-30T09:25:23.467Z,38.58
2022-08-30T09:27:54.823Z,39.16
2022-08-30T09:30:25.562Z,40.25
2022-08-30T09:32:59.357Z,38.98
2022-08-30T09:35:42.178Z,40.37
2022-08-30T09:38:13.624Z,41.56
2022-08-30T09:40:49.328Z,40.25
2022-08-30T09:43:18.686Z,41.26
2022-08-30T09:46:09.315Z,42.04
2022-08-30T09:48:46.448Z,41.46
2022-08-30T09:52:06.844Z,41.42
2022-08-30T09:54:54.614Z,41.91
2022-08-30T09:57:37.903Z,41.30
2022-08-30T10:00:24.653Z,42.16
2022-08-30T10:03:36.355Z,42.52
2022-08-30T10:06:24.564Z,42.52
2022-08-30T10:09:32.996Z,43.76
2022-08-30T10:12:10.494Z,43.85
2022-08-30T10:15:22.536Z,44.42
2022-08-30T10:18:11.517Z,45.29
2022-08-30T10:21:05.560Z,45.80
2022-08-30T10:23:44.577Z,45.32
2022-08-30T10:26:27.086Z,46.12
2022-08-30T10:29:03.244Z,46.08
2022-08-30T10:31:42.740Z,44.96
2022-08-30T10:34:22.133Z,45.64
2022-08-30T10:37:08.073Z,45.88
2022-08-30T10:39:48.041Z,48.91
2022-08-30T10:42:27.686Z,50.77
2022-08-30T10:45:12.690Z,50.00
2022-08-30T10:48:15.393Z,49.72
2022-08-30T10:50:52.812Z,49.74
2022-08-30T10:53:33.047Z,49.43
2022-08-30T10:56:09.616Z,48.88
2022-08-30T10:58:43.543Z,50.63
2022-08-30T11:01:33.973Z,50.28
2022-08-30T11:04:14.290Z,52.02
2022-08-30T11:06:54.079Z,52.11
2022-08-30T11:09:41.011Z,53.18
2022-08-30T11:12:32.635Z,53.28
2022-08-30T11:15:12.824Z,54.23
2022-08-30T11:18:05.421Z,54.65
2022-08-30T11:20:51.493Z,53.24
2022-08-30T11:23:20.101Z,52.42
2022-08-30T11:26:16.977Z,50.39
2022-08-30T11:28:49.277Z,49.64
2022-08-30T11:31:23.797Z,47.87
2022-08-30T11:33:58.292Z,47.95
2022-08-30T11:36:37.742Z,47.23
2022-08-30T11:39:43.427Z,45.34
2022-08-30T11:45:26.879Z,43.57
2022-08-30T11:47:59.528Z,43.47
2022-08-30T11:50:37.237Z,45.24
2022-08-30T11:53:12.073Z,43.60
2022-08-30T11:56:15.520Z,44.16
2022-08-30T11:58:48.640Z,44.83
2022-08-30T12:01:42.370Z,42.47
2022-08-30T12:04:26.482Z,41.68
2022-08-30T12:07:06.099Z,42.88
2022-08-30T12:09:34.878Z,45.72
2022-08-30T12:12:27.126Z,44.51
2022-08-30T12:14:58.400Z,45.01
2022-08-30T12:18:16.075Z,45.34
2022-08-30T12:20:49.025Z,44.65
2022-08-30T12:23:54.205Z,44.59
2022-08-30T12:26:26.040Z,44.67
2022-08-30T12:29:10.548Z,44.97
2022-08-30T12:31:53.774Z,43.74
2022-08-30T12:34:36.736Z,43.31
2022-08-30T12:37:30.685Z,43.61
2022-08-30T12:40:16.841Z,44.08
2022-08-30T12:42:57.340Z,44.12
2022-08-30T12:45:31.079Z,44.85
2022-08-30T12:48:10.067Z,45.10
2022-08-30T12:50:49.454Z,46.37
2022-08-30T12:53:28.742Z,47.40
2022-08-30T12:56:05.701Z,48.06
2022-08-30T12:59:03.576Z,48.70
2022-08-30T13:01:36.714Z,48.91
2022-08-30T13:04:15.123Z,49.33
2022-08-30T13:06:58.530Z,49.55
2022-08-30T13:09:37.294Z,50.28
2022-08-30T13:12:12.018Z,50.10
2022-08-30T13:14:43.541Z,51.32
2022-08-30T13:17:25.464Z,50.86
2022-08-30T13:20:00.827Z,49.84
2022-08-30T13:22:37.287Z,51.24
2022-08-30T13:25:07.996Z,52.07
2022-08-30T13:27:40.651Z,51.90
2022-08-30T13:30:15.244Z,52.72
2022-08-30T13:32:44.339Z,52.79
2022-08-30T13:35:13.812Z,53.77
2022-08-30T13:37:49.315Z,52.62
2022-08-30T13:40:21.708Z,51.71
2022-08-30T13:42:51.216Z,51.60
2022-08-30T13:48:12.121Z,53.19
2022-08-30T13:50:41.025Z,53.59
2022-08-30T13:53:11.139Z,53.93
2022-08-30T13:55:41.657Z,55.52
2022-08-30T13:58:13.730Z,55.27
2022-08-30T14:00:42.455Z,55.40
2022-08-30T14:03:13.255Z,55.21
2022-08-30T14:05:49.621Z,56.21
2022-08-30T14:11:19.847Z,57.04
2022-08-30T14:16:42.575Z,57.42
2022-08-30T14:19:13.342Z,57.39
2022-08-30T14:21:42.436Z,57.95
2022-08-30T14:24:13.930Z,58.56
2022-08-30T14:26:48.275Z,58.25
2022-08-30T14:29:18.726Z,58.37
2022-08-30T14:31:49.244Z,58.92
2022-08-30T14:34:19.017Z,59.19
2022-08-30T14:36:48.544Z,59.66
2022-08-30T14:39:19.334Z,59.58
2022-08-30T14:41:51.168Z,60.16
2022-08-30T14:44:21.740Z,60.69
2022-08-30T14:46:51.175Z,61.01
2022-08-30T14:49:21.355Z,61.43
2022-08-30T14:51:50.895Z,61.70
2022-08-30T14:54:23.259Z,61.77
2022-08-30T14:56:54.939Z,62.64
2022-08-30T14:59:24.722Z,62.63
2022-08-30T15:01:53.915Z,62.39
2022-08-30T15:04:22.968Z,62.54
2022-08-30T15:06:51.965Z,62.20
2022-08-30T15:09:24.558Z,62.80
2022-08-30T15:11:58.712Z,62.94
2022-08-30T15:14:28.917Z,63.38
2022-08-30T15:16:59.308Z,63.93
2022-08-30T15:19:28.924Z,64.05
2022-08-30T15:22:01.742Z,63.94
2022-08-30T15:24:31.349Z,64.03
2022-08-30T15:27:02.053Z,64.24
2022-08-30T15:29:33.906Z,64.38
2022-08-30T15:32:05.436Z,64.35
2022-08-30T15:34:34.386Z,65.01
2022-08-30T15:37:03.126Z,65.33
2022-08-30T15:39:32.854Z,65.19
2022-08-30T15:42:02.018Z,65.53
2022-08-30T15:44:32.548Z,65.95
2022-08-30T15:47:04.503Z,65.78
2022-08-30T15:49:33.770Z,66.25
2022-08-30T15:52:05.346Z,66.76
2022-08-30T15:54:36.475Z,66.79
2022-08-30T15:57:05.778Z,66.96
2022-08-30T15:59:34.627Z,66.90
2022-08-30T16:02:03.233Z,67.26
2022-08-30T16:04:31.750Z,67.11
2022-08-30T16:07:01.234Z,67.34
2022-08-30T16:09:32.678Z,67.67
2022-08-30T16:12:04.700Z,67.22
2022-08-30T16:14:34.312Z,67.24
2022-08-30T16:17:03.509Z,67.48
2022-08-30T16:19:33.608Z,67.70
2022-08-30T16:22:02.939Z,68.21
2022-08-30T16:24:31.436Z,68.24
2022-08-30T16:27:00.176Z,67.67
2022-08-30T16:29:28.569Z,67.93
2022-08-30T16:31:58.259Z,67.56
2022-08-30T16:34:29.685Z,67.70
2022-08-30T16:37:02.089Z,68.29
2022-08-30T16:39:30.958Z,68.87
2022-08-30T16:42:03.088Z,68.27
2022-08-30T16:44:31.884Z,69.06
2022-08-30T16:47:01.153Z,68.84
2022-08-30T16:49:30.134Z,68.83
2022-08-30T16:51:58.675Z,70.06
2022-08-30T16:54:27.306Z,69.83
2022-08-30T16:56:56.406Z,69.11
2022-08-30T16:59:25.586Z,69.45
2022-08-30T17:01:54.668Z,69.98
2022-08-30T17:04:23.545Z,70.54
2022-08-30T17:06:53.765Z,70.19
2022-08-30T17:09:22.653Z,70.60
2022-08-30T17:11:53.083Z,70.28
2022-08-30T17:14:27.985Z,71.06
2022-08-30T17:17:00.345Z,71.22
2022-08-30T17:19:32.183Z,71.20
2022-08-30T17:22:02.663Z,70.73
2022-08-30T17:24:31.572Z,70.83
2022-08-30T17:27:00.183Z,71.27
2022-08-30T17:29:28.912Z,71.77
2022-08-30T17:31:58.496Z,71.62
2022-08-30T17:34:29.789Z,71.25
2022-08-30T17:37:00.499Z,71.19
2022-08-30T17:39:30.574Z,71.22
2022-08-30T17:42:00.864Z,71.40
2022-08-30T17:44:32.407Z,72.40
2022-08-30T17:47:02.283Z,72.75
2022-08-30T17:49:33.825Z,72.74
2022-08-30T17:52:03.763Z,73.30
2022-08-30T17:54:35.385Z,73.29
2022-08-30T17:57:10.908Z,72.93
2022-08-30T17:59:40.797Z,73.00
2022-08-30T18:02:11.061Z,73.08
2022-08-30T18:04:42.066Z,72.68
2022-08-30T18:07:12.506Z,73.16
2022-08-30T18:09:42.498Z,73.29
2022-08-30T18:12:12.625Z,73.28
2022-08-30T18:14:42.867Z,73.35
2022-08-30T18:17:11.524Z,73.11
2022-08-30T18:19:46.425Z,73.09
2022-08-30T18:22:17.571Z,73.04
2022-08-30T18:24:48.293Z,73.61
2022-08-30T18:27:17.265Z,73.11
2022-08-30T18:29:46.866Z,73.61
2022-08-30T18:32:15.725Z,73.90
2022-08-30T18:34:48.526Z,74.04
2022-08-30T18:37:17.505Z,73.36
2022-08-30T18:39:46.665Z,73.79
2022-08-30T18:42:15.985Z,73.45
2022-08-30T18:44:44.583Z,73.31
2022-08-30T18:47:13.423Z,73.31
2022-08-30T18:49:43.603Z,73.17
2022-08-30T18:52:12.364Z,72.69
2022-08-30T18:54:47.285Z,73.31
2022-08-30T18:57:21.956Z,73.01
2022-08-30T18:59:51.115Z,73.17
2022-08-30T19:02:19.907Z,72.95
2022-08-30T19:04:49.796Z,72.79
2022-08-30T19:07:20.291Z,72.98
2022-08-30T19:09:49.713Z,73.22
2022-08-30T19:12:19.968Z,73.21
2022-08-30T19:14:49.797Z,73.38
2022-08-30T19:17:18.989Z,72.88
2022-08-30T19:19:49.347Z,73.14
2022-08-30T19:22:24.050Z,73.11
2022-08-30T19:24:56.322Z,73.21
2022-08-30T19:27:37.905Z,72.95
2022-08-30T19:30:10.493Z,73.46
2022-08-30T19:32:39.589Z,73.27
2022-08-30T19:35:09.251Z,73.51
2022-08-30T19:37:38.784Z,73.48
2022-08-30T19:40:11.466Z,73.54
2022-08-30T19:42:45.979Z,73.27
2022-08-30T19:45:18.679Z,73.54
2022-08-30T19:47:51.378Z,73.44
2022-08-30T19:50:21.271Z,73.27
2022-08-30T19:52:54.305Z,73.46
2022-08-30T19:55:38.765Z,73.61
2022-08-30T19:58:07.793Z,73.38
2022-08-30T20:00:39.173Z,73.84
2022-08-30T20:03:14.168Z,73.42
2022-08-30T20:05:44.494Z,73.19
2022-08-30T20:08:13.434Z,73.72
2022-08-30T20:10:44.795Z,73.74
2022-08-30T20:13:13.939Z,73.79
2022-08-30T20:15:42.559Z,73.95
2022-08-30T20:18:14.419Z,74.06
2022-08-30T20:20:49.348Z,74.34
2022-08-30T20:23:22.832Z,74.35
2022-08-30T20:25:56.311Z,74.23
2022-08-30T20:28:26.650Z,74.26
2022-08-30T20:30:56.771Z,74.35
2022-08-30T20:33:28.343Z,74.43
2022-08-30T20:36:01.501Z,74.50
2022-08-30T20:38:30.042Z,74.25
2022-08-30T20:40:59.691Z,74.14
2022-08-30T20:43:30.600Z,74.63
2022-08-30T20:45:59.251Z,74.46
2022-08-30T20:48:29.466Z,74.50
2022-08-30T20:50:58.173Z,74.79
2022-08-30T20:53:26.676Z,74.44
2022-08-30T20:55:55.364Z,74.50
2022-08-30T20:58:23.936Z,74.57
2022-08-30T21:00:55.514Z,74.99
2022-08-30T21:03:27.350Z,74.85
2022-08-30T21:05:57.581Z,75.17
2022-08-30T21:08:27.034Z,74.91
2022-08-30T21:10:56.277Z,75.11
2022-08-30T21:13:24.980Z,75.22
2022-08-30T21:15:55.078Z,74.56
2022-08-30T21:18:33.625Z,74.62
2022-08-30T21:21:10.556Z,74.70
2022-08-30T21:23:39.721Z,74.97
2022-08-30T21:26:08.732Z,75.39
2022-08-30T21:28:39.518Z,75.48
2022-08-30T21:31:13.570Z,75.95
2022-08-30T21:33:42.661Z,76.13
2022-08-30T21:36:30.537Z,76.24
2022-08-30T21:39:01.149Z,76.49
2022-08-30T21:41:32.075Z,76.16
2022-08-30T21:44:03.619Z,76.61
2022-08-30T21:46:33.653Z,76.58
2022-08-30T21:49:04.964Z,76.04
2022-08-30T21:51:37.435Z,75.72
2022-08-30T21:54:10.377Z,75.90
2022-08-30T21:56:40.378Z,76.54
2022-08-30T21:59:10.889Z,76.76
2022-08-30T22:01:39.738Z,76.87
2022-08-30T22:04:10.875Z,76.95
2022-08-30T22:06:41.291Z,76.90
2022-08-30T22:09:14.731Z,76.72
2022-08-30T22:11:45.066Z,77.01
2022-08-30T22:14:15.774Z,77.44
2022-08-30T22:16:46.033Z,76.85
2022-08-30T22:19:16.943Z,76.92
2022-08-30T22:21:48.867Z,77.02
2022-08-30T22:24:17.762Z,77.00
2022-08-30T22:26:47.008Z,76.69
2022-08-30T22:29:16.313Z,76.85
2022-08-30T22:31:45.194Z,77.21
2022-08-30T22:34:14.005Z,77.04
2022-08-30T22:36:42.843Z,77.27
2022-08-30T22:39:11.531Z,77.18
2022-08-30T22:41:42.162Z,77.15
2022-08-30T22:44:11.949Z,77.42
2022-08-30T22:46:41.402Z,76.96
2022-08-30T22:49:11.112Z,77.08
2022-08-30T22:51:41.222Z,77.25
2022-08-30T22:54:10.714Z,77.12
2022-08-30T22:56:40.662Z,76.89
2022-08-30T22:59:09.422Z,77.14
2022-08-30T23:01:41.553Z,77.64
2022-08-30T23:04:11.506Z,77.82
2022-08-30T23:06:40.972Z,77.42
2022-08-30T23:09:15.064Z,77.57
2022-08-30T23:11:43.922Z,77.74
2022-08-30T23:14:12.761Z,77.60
2022-08-30T23:16:41.562Z,77.24
2022-08-30T23:19:10.182Z,77.97
2022-08-30T23:21:38.995Z,78.09
2022-08-30T23:24:25.829Z,78.12
2022-08-30T23:27:13.174Z,77.93
2022-08-30T23:30:00.784Z,77.73
2022-08-30T23:32:48.444Z,77.71
2022-08-30T23:35:36.035Z,77.36
2022-08-30T23:38:25.464Z,77.41
2022-08-30T23:41:12.692Z,77.61
2022-08-30T23:43:59.695Z,77.26
2022-08-30T23:46:46.518Z,78.23
2022-08-30T23:49:33.589Z,77.45
2022-08-30T23:52:21.090Z,77.54
2022-08-30T23:55:11.057Z,77.30
2022-08-30T23:57:57.774Z,77.39
